Main page
METAR-TAF:

METAR-TAF

Airports :

Qurghonteppa International Airport

Qurghonteppa, Tajikistan

latitude: 37-51-44N, longitude: 068-51-46E, elevation: 449 m

Current weather observation

The report was made 38 minutes ago, at 12:30 UTC
Wind 4 kt from the South
Temperature 14°C
Humidity 72%
Pressure 1013 hPa
Visibility: 8000 m
Overcast at a height of 10300 ft

METAR: UTDT 211230Z 19002MPS 8000 OVC103 14/09 Q1013 R35/CLRD70 RMK QFE720/0960

Time: 18:08 (13:08 UTC)

Forecast

The report was made 1 hour and 8 minutes ago, at 12:00 UTC
Forecast valid from 21 at 13 UTC to 21 at 22 UTC
Wind 4 kt from variable directions
Visibility: 6000 m
Scattered clouds at a height of 5000 ft, Cumulonimbus.
Broken clouds at a height of 10000 ft
Temporary
from 21 at 13 UTC to 21 at 22 UTC
Wind 10 kt from the South/Southwest
Visibility: 3100 m
light rain showers, mist

TAF: UTDT 211200Z 2113/2122 VRB02MPS 6000 SCT050CB BKN100 TEMPO 2113/2122 20005MPS 3100 -SHRA BR

Weather observations and forecasts of more than 4000 airports (METAR and TAF reports).

The available stations are represented by yellow and red dots on the map.

Hover mouse over dot to see the name of the station.

Then click to see weather observations and forecasts.

To change the map : click on the green buttons with a black cross to zoom in, on the green button with a dash to zoom out, or on the green arrows for adjacent maps.


METAR-TAF: